sensor_id;sensor_type;location;lat;lon;timestamp;temperature;humidity
67194;DHT22;54121;53.508;49.422;2022-07-22T00:01:35;25.20;53.80
67194;DHT22;54121;53.508;49.422;2022-07-22T00:04:02;25.10;54.00
67194;DHT22;54121;53.508;49.422;2022-07-22T00:06:29;25.10;53.30
67194;DHT22;54121;53.508;49.422;2022-07-22T00:08:56;25.00;54.40
67194;DHT22;54121;53.508;49.422;2022-07-22T00:11:23;25.10;54.70
67194;DHT22;54121;53.508;49.422;2022-07-22T00:13:50;25.10;55.30
67194;DHT22;54121;53.508;49.422;2022-07-22T00:16:16;25.10;53.90
67194;DHT22;54121;53.508;49.422;2022-07-22T00:18:43;25.00;53.80
67194;DHT22;54121;53.508;49.422;2022-07-22T00:21:09;25.00;53.50
67194;DHT22;54121;53.508;49.422;2022-07-22T00:23:36;25.10;53.30
67194;DHT22;54121;53.508;49.422;2022-07-22T00:26:02;24.80;53.60
67194;DHT22;54121;53.508;49.422;2022-07-22T00:30:55;25.10;50.80
67194;DHT22;54121;53.508;49.422;2022-07-22T00:33:22;25.00;52.30
67194;DHT22;54121;53.508;49.422;2022-07-22T00:35:49;24.90;52.40
67194;DHT22;54121;53.508;49.422;2022-07-22T00:40:42;25.10;50.40
67194;DHT22;54121;53.508;49.422;2022-07-22T00:43:09;24.90;51.50
67194;DHT22;54121;53.508;49.422;2022-07-22T00:45:36;24.90;50.90
67194;DHT22;54121;53.508;49.422;2022-07-22T00:48:03;24.90;50.80
67194;DHT22;54121;53.508;49.422;2022-07-22T00:50:29;25.00;50.10
67194;DHT22;54121;53.508;49.422;2022-07-22T00:52:56;25.00;49.50
67194;DHT22;54121;53.508;49.422;2022-07-22T00:55:22;25.00;48.50
67194;DHT22;54121;53.508;49.422;2022-07-22T00:57:49;25.00;48.60
67194;DHT22;54121;53.508;49.422;2022-07-22T01:00:18;25.10;48.00
67194;DHT22;54121;53.508;49.422;2022-07-22T01:02:46;24.80;48.40
67194;DHT22;54121;53.508;49.422;2022-07-22T01:05:13;25.10;48.20
67194;DHT22;54121;53.508;49.422;2022-07-22T01:07:39;25.20;47.20
67194;DHT22;54121;53.508;49.422;2022-07-22T01:10:07;25.00;47.40
67194;DHT22;54121;53.508;49.422;2022-07-22T01:12:33;24.90;47.30
67194;DHT22;54121;53.508;49.422;2022-07-22T01:15:00;24.90;46.10
67194;DHT22;54121;53.508;49.422;2022-07-22T01:17:27;24.80;47.10
67194;DHT22;54121;53.508;49.422;2022-07-22T01:19:58;25.00;46.50
67194;DHT22;54121;53.508;49.422;2022-07-22T01:22:26;25.00;46.60
67194;DHT22;54121;53.508;49.422;2022-07-22T01:24:53;24.90;46.60
67194;DHT22;54121;53.508;49.422;2022-07-22T01:27:19;24.80;47.30
67194;DHT22;54121;53.508;49.422;2022-07-22T01:29:48;24.90;47.80
67194;DHT22;54121;53.508;49.422;2022-07-22T01:32:15;24.90;47.50
67194;DHT22;54121;53.508;49.422;2022-07-22T01:34:42;24.90;46.80
67194;DHT22;54121;53.508;49.422;2022-07-22T01:37:10;24.90;47.10
67194;DHT22;54121;53.508;49.422;2022-07-22T01:39:37;24.90;46.20
67194;DHT22;54121;53.508;49.422;2022-07-22T01:42:04;24.90;46.30
67194;DHT22;54121;53.508;49.422;2022-07-22T01:44:31;25.00;46.00
67194;DHT22;54121;53.508;49.422;2022-07-22T01:46:58;25.00;44.30
67194;DHT22;54121;53.508;49.422;2022-07-22T01:49:25;25.10;45.00
67194;DHT22;54121;53.508;49.422;2022-07-22T01:51:52;24.90;44.50
67194;DHT22;54121;53.508;49.422;2022-07-22T01:54:18;25.00;45.60
67194;DHT22;54121;53.508;49.422;2022-07-22T01:56:45;25.30;43.50
67194;DHT22;54121;53.508;49.422;2022-07-22T01:59:11;25.40;44.20
67194;DHT22;54121;53.508;49.422;2022-07-22T02:06:31;25.10;43.80
67194;DHT22;54121;53.508;49.422;2022-07-22T02:08:57;25.40;44.70
67194;DHT22;54121;53.508;49.422;2022-07-22T02:11:24;25.40;43.90
67194;DHT22;54121;53.508;49.422;2022-07-22T02:13:51;25.40;42.70
67194;DHT22;54121;53.508;49.422;2022-07-22T02:18:44;25.60;43.00
67194;DHT22;54121;53.508;49.422;2022-07-22T02:21:11;25.80;44.00
67194;DHT22;54121;53.508;49.422;2022-07-22T02:23:37;25.60;44.40
67194;DHT22;54121;53.508;49.422;2022-07-22T02:26:04;25.50;44.10
67194;DHT22;54121;53.508;49.422;2022-07-22T02:28:30;25.40;45.40
67194;DHT22;54121;53.508;49.422;2022-07-22T02:30:56;25.60;45.30
67194;DHT22;54121;53.508;49.422;2022-07-22T02:33:23;25.40;45.00
67194;DHT22;54121;53.508;49.422;2022-07-22T02:35:49;25.30;44.90
67194;DHT22;54121;53.508;49.422;2022-07-22T02:38:16;25.40;46.10
67194;DHT22;54121;53.508;49.422;2022-07-22T02:40:42;25.50;44.80
67194;DHT22;54121;53.508;49.422;2022-07-22T02:43:09;25.50;44.70
67194;DHT22;54121;53.508;49.422;2022-07-22T02:45:35;25.40;44.50
67194;DHT22;54121;53.508;49.422;2022-07-22T02:48:02;25.40;45.40
67194;DHT22;54121;53.508;49.422;2022-07-22T02:50:28;25.50;44.80
67194;DHT22;54121;53.508;49.422;2022-07-22T02:52:54;25.70;44.80
67194;DHT22;54121;53.508;49.422;2022-07-22T02:55:21;25.60;45.00
67194;DHT22;54121;53.508;49.422;2022-07-22T02:57:47;25.30;44.50
67194;DHT22;54121;53.508;49.422;2022-07-22T03:00:14;25.90;43.60
67194;DHT22;54121;53.508;49.422;2022-07-22T03:02:41;26.40;42.20
67194;DHT22;54121;53.508;49.422;2022-07-22T03:05:09;26.10;42.30
67194;DHT22;54121;53.508;49.422;2022-07-22T03:07:35;26.00;42.40
67194;DHT22;54121;53.508;49.422;2022-07-22T03:10:02;26.00;43.00
67194;DHT22;54121;53.508;49.422;2022-07-22T03:12:29;26.10;42.60
67194;DHT22;54121;53.508;49.422;2022-07-22T03:14:55;26.20;41.30
67194;DHT22;54121;53.508;49.422;2022-07-22T03:17:21;26.40;43.00
67194;DHT22;54121;53.508;49.422;2022-07-22T03:19:48;26.50;42.40
67194;DHT22;54121;53.508;49.422;2022-07-22T03:22:14;26.60;41.80
67194;DHT22;54121;53.508;49.422;2022-07-22T03:24:41;26.70;41.30
67194;DHT22;54121;53.508;49.422;2022-07-22T03:27:07;26.90;39.50
67194;DHT22;54121;53.508;49.422;2022-07-22T03:29:34;27.20;38.90
67194;DHT22;54121;53.508;49.422;2022-07-22T03:32:00;27.20;38.80
67194;DHT22;54121;53.508;49.422;2022-07-22T03:34:26;27.10;38.90
67194;DHT22;54121;53.508;49.422;2022-07-22T03:36:53;27.70;37.60
67194;DHT22;54121;53.508;49.422;2022-07-22T03:39:19;28.50;35.50
67194;DHT22;54121;53.508;49.422;2022-07-22T03:41:46;28.40;36.10
67194;DHT22;54121;53.508;49.422;2022-07-22T03:44:12;28.50;37.30
67194;DHT22;54121;53.508;49.422;2022-07-22T03:46:38;28.60;36.60
67194;DHT22;54121;53.508;49.422;2022-07-22T03:51:32;29.30;34.00
67194;DHT22;54121;53.508;49.422;2022-07-22T03:53:58;29.20;34.50
67194;DHT22;54121;53.508;49.422;2022-07-22T03:56:24;29.40;34.70
67194;DHT22;54121;53.508;49.422;2022-07-22T03:58:51;29.80;34.00
67194;DHT22;54121;53.508;49.422;2022-07-22T04:01:17;29.60;34.00
67194;DHT22;54121;53.508;49.422;2022-07-22T04:03:44;29.90;33.50
67194;DHT22;54121;53.508;49.422;2022-07-22T04:06:10;29.80;33.50
67194;DHT22;54121;53.508;49.422;2022-07-22T04:08:36;30.40;33.70
67194;DHT22;54121;53.508;49.422;2022-07-22T04:11:03;30.40;32.00
67194;DHT22;54121;53.508;49.422;2022-07-22T04:13:29;30.10;32.30
67194;DHT22;54121;53.508;49.422;2022-07-22T04:15:56;30.40;32.10
67194;DHT22;54121;53.508;49.422;2022-07-22T04:18:22;31.10;31.40
67194;DHT22;54121;53.508;49.422;2022-07-22T04:20:49;31.40;29.90
67194;DHT22;54121;53.508;49.422;2022-07-22T04:23:15;31.40;30.60
67194;DHT22;54121;53.508;49.422;2022-07-22T04:25:42;31.20;30.60
67194;DHT22;54121;53.508;49.422;2022-07-22T04:28:08;31.30;30.60
67194;DHT22;54121;53.508;49.422;2022-07-22T04:30:35;32.00;29.60
67194;DHT22;54121;53.508;49.422;2022-07-22T04:33:01;31.90;29.30
67194;DHT22;54121;53.508;49.422;2022-07-22T04:35:28;31.80;29.50
67194;DHT22;54121;53.508;49.422;2022-07-22T04:37:54;32.00;28.80
67194;DHT22;54121;53.508;49.422;2022-07-22T04:40:21;32.20;28.50
67194;DHT22;54121;53.508;49.422;2022-07-22T04:42:47;32.20;26.80
67194;DHT22;54121;53.508;49.422;2022-07-22T04:45:14;32.70;26.30
67194;DHT22;54121;53.508;49.422;2022-07-22T04:50:07;33.00;25.10
67194;DHT22;54121;53.508;49.422;2022-07-22T04:55:00;33.50;24.60
67194;DHT22;54121;53.508;49.422;2022-07-22T04:57:27;33.30;24.80
67194;DHT22;54121;53.508;49.422;2022-07-22T04:59:53;33.10;25.80
67194;DHT22;54121;53.508;49.422;2022-07-22T05:07:13;34.20;23.90
67194;DHT22;54121;53.508;49.422;2022-07-22T05:09:40;34.10;24.00
67194;DHT22;54121;53.508;49.422;2022-07-22T05:14:33;34.40;23.20
67194;DHT22;54121;53.508;49.422;2022-07-22T05:17:00;34.40;23.70
67194;DHT22;54121;53.508;49.422;2022-07-22T05:19:26;34.10;24.10
67194;DHT22;54121;53.508;49.422;2022-07-22T05:21:52;33.40;25.00
67194;DHT22;54121;53.508;49.422;2022-07-22T05:24:19;34.30;23.30
67194;DHT22;54121;53.508;49.422;2022-07-22T05:26:45;35.00;22.40
67194;DHT22;54121;53.508;49.422;2022-07-22T05:29:12;34.80;22.60
67194;DHT22;54121;53.508;49.422;2022-07-22T05:31:38;34.90;22.60
67194;DHT22;54121;53.508;49.422;2022-07-22T05:34:04;35.60;21.40
67194;DHT22;54121;53.508;49.422;2022-07-22T05:36:32;34.80;22.10
67194;DHT22;54121;53.508;49.422;2022-07-22T05:38:58;35.40;22.30
67194;DHT22;54121;53.508;49.422;2022-07-22T05:41:25;36.80;20.40
67194;DHT22;54121;53.508;49.422;2022-07-22T05:43:51;37.80;19.50
67194;DHT22;54121;53.508;49.422;2022-07-22T05:46:18;37.90;19.40
67194;DHT22;54121;53.508;49.422;2022-07-22T05:48:44;38.50;18.70
67194;DHT22;54121;53.508;49.422;2022-07-22T05:51:12;38.00;19.10
67194;DHT22;54121;53.508;49.422;2022-07-22T05:53:39;38.20;19.00
67194;DHT22;54121;53.508;49.422;2022-07-22T05:56:06;38.40;18.90
67194;DHT22;54121;53.508;49.422;2022-07-22T05:58:33;37.80;19.40
67194;DHT22;54121;53.508;49.422;2022-07-22T06:00:59;37.80;20.30
67194;DHT22;54121;53.508;49.422;2022-07-22T06:03:26;37.60;19.80
67194;DHT22;54121;53.508;49.422;2022-07-22T06:05:52;37.40;19.70
67194;DHT22;54121;53.508;49.422;2022-07-22T06:08:19;37.30;20.30
67194;DHT22;54121;53.508;49.422;2022-07-22T06:10:45;37.50;20.00
67194;DHT22;54121;53.508;49.422;2022-07-22T06:13:11;38.60;18.90
67194;DHT22;54121;53.508;49.422;2022-07-22T06:15:38;39.10;18.00
67194;DHT22;54121;53.508;49.422;2022-07-22T06:18:05;39.10;19.00
67194;DHT22;54121;53.508;49.422;2022-07-22T06:20:31;38.80;18.00
67194;DHT22;54121;53.508;49.422;2022-07-22T06:22:58;38.60;18.30
67194;DHT22;54121;53.508;49.422;2022-07-22T06:25:24;38.70;19.30
67194;DHT22;54121;53.508;49.422;2022-07-22T06:27:50;38.40;19.70
67194;DHT22;54121;53.508;49.422;2022-07-22T06:30:17;37.90;18.90
67194;DHT22;54121;53.508;49.422;2022-07-22T06:32:44;37.60;19.30
67194;DHT22;54121;53.508;49.422;2022-07-22T06:37:37;37.30;19.70
67194;DHT22;54121;53.508;49.422;2022-07-22T06:40:04;37.30;19.90
67194;DHT22;54121;53.508;49.422;2022-07-22T06:42:31;36.90;20.10
67194;DHT22;54121;53.508;49.422;2022-07-22T06:47:24;36.80;20.70
67194;DHT22;54121;53.508;49.422;2022-07-22T06:49:50;36.60;21.30
67194;DHT22;54121;53.508;49.422;2022-07-22T06:52:17;38.10;19.60
67194;DHT22;54121;53.508;49.422;2022-07-22T06:57:10;38.30;19.00
67194;DHT22;54121;53.508;49.422;2022-07-22T06:59:37;39.10;18.00
67194;DHT22;54121;53.508;49.422;2022-07-22T07:02:03;38.60;18.60
67194;DHT22;54121;53.508;49.422;2022-07-22T07:04:30;38.60;18.40
67194;DHT22;54121;53.508;49.422;2022-07-22T07:06:56;38.10;18.50
67194;DHT22;54121;53.508;49.422;2022-07-22T07:09:23;37.70;19.20
67194;DHT22;54121;53.508;49.422;2022-07-22T07:11:50;37.10;20.10
67194;DHT22;54121;53.508;49.422;2022-07-22T07:14:16;37.50;20.20
67194;DHT22;54121;53.508;49.422;2022-07-22T07:16:43;36.80;20.80
67194;DHT22;54121;53.508;49.422;2022-07-22T07:19:09;37.00;20.60
67194;DHT22;54121;53.508;49.422;2022-07-22T07:21:36;36.80;21.50
67194;DHT22;54121;53.508;49.422;2022-07-22T07:24:02;36.20;21.90
67194;DHT22;54121;53.508;49.422;2022-07-22T07:26:29;36.40;22.10
67194;DHT22;54121;53.508;49.422;2022-07-22T07:31:22;37.20;20.80
67194;DHT22;54121;53.508;49.422;2022-07-22T07:36:15;37.70;20.00
67194;DHT22;54121;53.508;49.422;2022-07-22T07:38:42;37.60;19.70
67194;DHT22;54121;53.508;49.422;2022-07-22T07:43:35;37.70;19.30
67194;DHT22;54121;53.508;49.422;2022-07-22T07:46:02;37.50;19.30
67194;DHT22;54121;53.508;49.422;2022-07-22T07:48:28;37.80;19.00
67194;DHT22;54121;53.508;49.422;2022-07-22T07:50:55;38.10;18.50
67194;DHT22;54121;53.508;49.422;2022-07-22T07:55:49;38.10;17.80
67194;DHT22;54121;53.508;49.422;2022-07-22T08:00:42;37.60;18.20
67194;DHT22;54121;53.508;49.422;2022-07-22T08:05:36;38.50;17.80
67194;DHT22;54121;53.508;49.422;2022-07-22T08:08:05;38.50;18.60
67194;DHT22;54121;53.508;49.422;2022-07-22T08:12:58;38.50;16.80
67194;DHT22;54121;53.508;49.422;2022-07-22T08:15:26;38.60;16.90
67194;DHT22;54121;53.508;49.422;2022-07-22T08:17:54;38.70;17.00
67194;DHT22;54121;53.508;49.422;2022-07-22T08:20:21;39.40;16.50
67194;DHT22;54121;53.508;49.422;2022-07-22T08:22:48;40.00;15.60
67194;DHT22;54121;53.508;49.422;2022-07-22T08:25:14;40.70;15.00
67194;DHT22;54121;53.508;49.422;2022-07-22T08:27:41;40.70;14.90
67194;DHT22;54121;53.508;49.422;2022-07-22T08:30:08;41.00;14.50
67194;DHT22;54121;53.508;49.422;2022-07-22T08:32:35;41.00;15.30
67194;DHT22;54121;53.508;49.422;2022-07-22T08:35:02;40.30;15.30
67194;DHT22;54121;53.508;49.422;2022-07-22T08:37:29;40.30;16.20
67194;DHT22;54121;53.508;49.422;2022-07-22T08:42:22;41.50;14.80
67194;DHT22;54121;53.508;49.422;2022-07-22T08:44:52;41.50;15.60
67194;DHT22;54121;53.508;49.422;2022-07-22T08:47:23;42.60;14.40
67194;DHT22;54121;53.508;49.422;2022-07-22T08:49:50;43.10;13.90
67194;DHT22;54121;53.508;49.422;2022-07-22T08:52:16;42.60;14.10
67194;DHT22;54121;53.508;49.422;2022-07-22T08:54:43;42.20;14.10
67194;DHT22;54121;53.508;49.422;2022-07-22T08:57:09;42.40;14.40
67194;DHT22;54121;53.508;49.422;2022-07-22T08:59:50;41.20;15.40
67194;DHT22;54121;53.508;49.422;2022-07-22T09:02:17;41.30;15.30
67194;DHT22;54121;53.508;49.422;2022-07-22T09:05:05;41.50;15.20
67194;DHT22;54121;53.508;49.422;2022-07-22T09:07:35;41.20;15.20
67194;DHT22;54121;53.508;49.422;2022-07-22T09:10:15;40.70;15.30
67194;DHT22;54121;53.508;49.422;2022-07-22T09:12:57;40.70;15.60
67194;DHT22;54121;53.508;49.422;2022-07-22T09:15:32;41.90;14.80
67194;DHT22;54121;53.508;49.422;2022-07-22T09:18:03;41.60;14.60
67194;DHT22;54121;53.508;49.422;2022-07-22T09:20:30;41.80;14.30
67194;DHT22;54121;53.508;49.422;2022-07-22T09:22:57;42.10;14.00
67194;DHT22;54121;53.508;49.422;2022-07-22T09:25:29;42.60;13.90
67194;DHT22;54121;53.508;49.422;2022-07-22T09:28:17;43.40;13.00
67194;DHT22;54121;53.508;49.422;2022-07-22T09:30:50;43.00;13.10
67194;DHT22;54121;53.508;49.422;2022-07-22T09:33:17;43.70;13.00
67194;DHT22;54121;53.508;49.422;2022-07-22T09:35:45;43.80;12.70
67194;DHT22;54121;53.508;49.422;2022-07-22T09:38:13;42.60;13.40
67194;DHT22;54121;53.508;49.422;2022-07-22T09:40:43;42.50;13.80
67194;DHT22;54121;53.508;49.422;2022-07-22T09:43:17;42.90;13.30
67194;DHT22;54121;53.508;49.422;2022-07-22T09:45:50;43.20;12.80
67194;DHT22;54121;53.508;49.422;2022-07-22T09:48:18;43.10;13.00
67194;DHT22;54121;53.508;49.422;2022-07-22T09:50:46;43.40;13.00
67194;DHT22;54121;53.508;49.422;2022-07-22T09:53:13;43.20;12.80
67194;DHT22;54121;53.508;49.422;2022-07-22T09:55:40;43.00;12.90
67194;DHT22;54121;53.508;49.422;2022-07-22T09:58:07;42.40;13.30
67194;DHT22;54121;53.508;49.422;2022-07-22T10:00:34;42.20;13.30
67194;DHT22;54121;53.508;49.422;2022-07-22T10:03:03;42.10;13.70
67194;DHT22;54121;53.508;49.422;2022-07-22T10:05:33;42.20;13.60
67194;DHT22;54121;53.508;49.422;2022-07-22T10:08:01;42.40;13.50
67194;DHT22;54121;53.508;49.422;2022-07-22T10:10:30;41.20;14.50
67194;DHT22;54121;53.508;49.422;2022-07-22T10:12:57;40.30;15.60
67194;DHT22;54121;53.508;49.422;2022-07-22T10:15:26;40.30;15.20
67194;DHT22;54121;53.508;49.422;2022-07-22T10:17:55;41.60;14.50
67194;DHT22;54121;53.508;49.422;2022-07-22T10:20:25;41.10;14.60
67194;DHT22;54121;53.508;49.422;2022-07-22T10:22:57;40.80;15.10
67194;DHT22;54121;53.508;49.422;2022-07-22T10:25:26;40.60;15.40
67194;DHT22;54121;53.508;49.422;2022-07-22T10:28:03;40.20;15.80
67194;DHT22;54121;53.508;49.422;2022-07-22T10:30:36;41.20;15.40
67194;DHT22;54121;53.508;49.422;2022-07-22T10:33:05;40.80;15.40
67194;DHT22;54121;53.508;49.422;2022-07-22T10:35:34;40.40;15.90
67194;DHT22;54121;53.508;49.422;2022-07-22T10:38:06;40.60;15.60
67194;DHT22;54121;53.508;49.422;2022-07-22T10:40:50;40.80;15.60
67194;DHT22;54121;53.508;49.422;2022-07-22T10:46:09;42.20;13.90
67194;DHT22;54121;53.508;49.422;2022-07-22T10:56:30;40.90;15.20
67194;DHT22;54121;53.508;49.422;2022-07-22T10:58:59;40.80;15.10
67194;DHT22;54121;53.508;49.422;2022-07-22T11:01:33;40.80;15.10
67194;DHT22;54121;53.508;49.422;2022-07-22T11:04:14;41.70;14.90
67194;DHT22;54121;53.508;49.422;2022-07-22T11:06:42;41.50;14.70
67194;DHT22;54121;53.508;49.422;2022-07-22T11:09:11;41.20;15.40
67194;DHT22;54121;53.508;49.422;2022-07-22T11:16:58;41.40;15.20
67194;DHT22;54121;53.508;49.422;2022-07-22T11:19:27;40.60;16.20
67194;DHT22;54121;53.508;49.422;2022-07-22T11:21:54;40.70;16.00
67194;DHT22;54121;53.508;49.422;2022-07-22T11:24:22;40.50;16.20
67194;DHT22;54121;53.508;49.422;2022-07-22T11:26:50;41.00;15.70
67194;DHT22;54121;53.508;49.422;2022-07-22T11:29:29;40.80;16.00
67194;DHT22;54121;53.508;49.422;2022-07-22T11:31:56;40.70;16.20
67194;DHT22;54121;53.508;49.422;2022-07-22T11:34:24;40.20;16.80
67194;DHT22;54121;53.508;49.422;2022-07-22T11:36:52;39.80;17.40
67194;DHT22;54121;53.508;49.422;2022-07-22T11:39:20;39.80;17.00
67194;DHT22;54121;53.508;49.422;2022-07-22T11:41:47;40.30;16.50
67194;DHT22;54121;53.508;49.422;2022-07-22T11:44:21;40.30;17.00
67194;DHT22;54121;53.508;49.422;2022-07-22T11:46:48;40.40;17.10
67194;DHT22;54121;53.508;49.422;2022-07-22T11:49:16;42.20;15.20
67194;DHT22;54121;53.508;49.422;2022-07-22T11:51:43;43.00;13.90
67194;DHT22;54121;53.508;49.422;2022-07-22T11:54:10;43.00;14.00
67194;DHT22;54121;53.508;49.422;2022-07-22T11:56:37;43.10;13.90
67194;DHT22;54121;53.508;49.422;2022-07-22T11:59:05;42.70;14.20
67194;DHT22;54121;53.508;49.422;2022-07-22T12:01:35;42.60;14.10
67194;DHT22;54121;53.508;49.422;2022-07-22T12:04:03;42.70;13.70
67194;DHT22;54121;53.508;49.422;2022-07-22T12:06:32;43.20;13.30
67194;DHT22;54121;53.508;49.422;2022-07-22T12:09:05;44.80;12.00
67194;DHT22;54121;53.508;49.422;2022-07-22T12:11:32;44.10;12.40
67194;DHT22;54121;53.508;49.422;2022-07-22T12:14:06;45.10;11.20
67194;DHT22;54121;53.508;49.422;2022-07-22T12:16:33;44.10;12.10
67194;DHT22;54121;53.508;49.422;2022-07-22T12:19:03;45.40;11.40
67194;DHT22;54121;53.508;49.422;2022-07-22T12:21:32;45.20;10.60
67194;DHT22;54121;53.508;49.422;2022-07-22T12:24:04;45.20;10.50
67194;DHT22;54121;53.508;49.422;2022-07-22T12:26:45;45.50;10.40
67194;DHT22;54121;53.508;49.422;2022-07-22T12:29:23;46.10;9.90
67194;DHT22;54121;53.508;49.422;2022-07-22T12:32:01;46.30;10.10
67194;DHT22;54121;53.508;49.422;2022-07-22T12:34:32;46.80;9.40
67194;DHT22;54121;53.508;49.422;2022-07-22T12:37:00;46.90;8.60
67194;DHT22;54121;53.508;49.422;2022-07-22T12:39:28;46.20;9.30
67194;DHT22;54121;53.508;49.422;2022-07-22T12:41:55;46.10;9.90
67194;DHT22;54121;53.508;49.422;2022-07-22T12:44:24;46.90;9.00
67194;DHT22;54121;53.508;49.422;2022-07-22T12:46:55;46.10;9.80
67194;DHT22;54121;53.508;49.422;2022-07-22T12:49:24;45.60;9.80
67194;DHT22;54121;53.508;49.422;2022-07-22T12:52:07;45.20;10.10
67194;DHT22;54121;53.508;49.422;2022-07-22T12:54:35;44.40;10.90
67194;DHT22;54121;53.508;49.422;2022-07-22T12:57:02;44.70;10.60
67194;DHT22;54121;53.508;49.422;2022-07-22T12:59:28;44.00;11.20
67194;DHT22;54121;53.508;49.422;2022-07-22T13:01:55;44.00;11.40
67194;DHT22;54121;53.508;49.422;2022-07-22T13:04:22;43.70;11.90
67194;DHT22;54121;53.508;49.422;2022-07-22T13:06:49;43.50;12.10
67194;DHT22;54121;53.508;49.422;2022-07-22T13:09:16;43.60;12.10
67194;DHT22;54121;53.508;49.422;2022-07-22T13:11:42;43.20;12.20
67194;DHT22;54121;53.508;49.422;2022-07-22T13:14:12;43.10;12.40
67194;DHT22;54121;53.508;49.422;2022-07-22T13:16:38;43.20;11.80
67194;DHT22;54121;53.508;49.422;2022-07-22T13:19:05;43.00;12.70
67194;DHT22;54121;53.508;49.422;2022-07-22T13:21:32;43.00;12.50
67194;DHT22;54121;53.508;49.422;2022-07-22T13:23:58;43.40;11.70
67194;DHT22;54121;53.508;49.422;2022-07-22T13:26:24;42.60;12.60
67194;DHT22;54121;53.508;49.422;2022-07-22T13:28:52;42.70;12.60
67194;DHT22;54121;53.508;49.422;2022-07-22T13:31:18;42.00;13.00
67194;DHT22;54121;53.508;49.422;2022-07-22T13:33:45;42.50;12.80
67194;DHT22;54121;53.508;49.422;2022-07-22T13:36:11;41.80;13.50
67194;DHT22;54121;53.508;49.422;2022-07-22T13:38:38;42.30;13.10
67194;DHT22;54121;53.508;49.422;2022-07-22T13:41:04;41.60;13.90
67194;DHT22;54121;53.508;49.422;2022-07-22T13:43:42;41.50;13.40
67194;DHT22;54121;53.508;49.422;2022-07-22T13:46:10;41.70;14.00
67194;DHT22;54121;53.508;49.422;2022-07-22T13:48:36;41.60;13.90
67194;DHT22;54121;53.508;49.422;2022-07-22T13:51:03;41.80;13.80
67194;DHT22;54121;53.508;49.422;2022-07-22T13:53:31;41.20;14.20
67194;DHT22;54121;53.508;49.422;2022-07-22T13:55:57;41.20;14.70
67194;DHT22;54121;53.508;49.422;2022-07-22T13:58:23;41.50;13.80
67194;DHT22;54121;53.508;49.422;2022-07-22T14:00:50;41.40;14.00
67194;DHT22;54121;53.508;49.422;2022-07-22T14:03:16;41.30;13.80
67194;DHT22;54121;53.508;49.422;2022-07-22T14:05:44;42.10;13.40
67194;DHT22;54121;53.508;49.422;2022-07-22T14:08:11;42.30;13.00
67194;DHT22;54121;53.508;49.422;2022-07-22T14:10:37;42.60;12.60
67194;DHT22;54121;53.508;49.422;2022-07-22T14:13:04;42.40;13.00
67194;DHT22;54121;53.508;49.422;2022-07-22T14:15:33;42.00;13.70
67194;DHT22;54121;53.508;49.422;2022-07-22T14:17:59;41.90;14.30
67194;DHT22;54121;53.508;49.422;2022-07-22T14:20:26;42.00;14.30
67194;DHT22;54121;53.508;49.422;2022-07-22T14:22:53;41.80;14.30
67194;DHT22;54121;53.508;49.422;2022-07-22T14:25:19;42.30;13.90
67194;DHT22;54121;53.508;49.422;2022-07-22T14:27:46;41.60;14.70
67194;DHT22;54121;53.508;49.422;2022-07-22T14:30:13;41.30;14.70
67194;DHT22;54121;53.508;49.422;2022-07-22T14:32:39;40.60;15.60
67194;DHT22;54121;53.508;49.422;2022-07-22T14:35:06;40.30;15.50
67194;DHT22;54121;53.508;49.422;2022-07-22T14:37:33;40.70;15.20
67194;DHT22;54121;53.508;49.422;2022-07-22T14:39:59;41.00;14.90
67194;DHT22;54121;53.508;49.422;2022-07-22T14:42:26;41.80;14.30
67194;DHT22;54121;53.508;49.422;2022-07-22T14:44:52;41.40;14.50
67194;DHT22;54121;53.508;49.422;2022-07-22T14:47:19;41.60;14.10
67194;DHT22;54121;53.508;49.422;2022-07-22T14:49:45;41.10;14.40
67194;DHT22;54121;53.508;49.422;2022-07-22T14:52:12;41.30;14.30
67194;DHT22;54121;53.508;49.422;2022-07-22T14:54:38;41.20;14.50
67194;DHT22;54121;53.508;49.422;2022-07-22T14:57:05;41.20;14.10
67194;DHT22;54121;53.508;49.422;2022-07-22T14:59:31;41.50;14.40
67194;DHT22;54121;53.508;49.422;2022-07-22T15:01:57;41.60;14.20
67194;DHT22;54121;53.508;49.422;2022-07-22T15:04:24;41.40;14.10
67194;DHT22;54121;53.508;49.422;2022-07-22T15:06:50;41.30;14.80
67194;DHT22;54121;53.508;49.422;2022-07-22T15:09:17;41.00;15.30
67194;DHT22;54121;53.508;49.422;2022-07-22T15:11:44;40.80;15.00
67194;DHT22;54121;53.508;49.422;2022-07-22T15:14:10;40.80;14.90
67194;DHT22;54121;53.508;49.422;2022-07-22T15:16:37;40.90;15.00
67194;DHT22;54121;53.508;49.422;2022-07-22T15:19:03;40.60;15.10
67194;DHT22;54121;53.508;49.422;2022-07-22T15:21:29;40.40;15.70
67194;DHT22;54121;53.508;49.422;2022-07-22T15:23:58;40.20;16.10
67194;DHT22;54121;53.508;49.422;2022-07-22T15:26:24;39.70;16.60
67194;DHT22;54121;53.508;49.422;2022-07-22T15:28:51;39.30;17.20
67194;DHT22;54121;53.508;49.422;2022-07-22T15:31:19;39.20;17.40
67194;DHT22;54121;53.508;49.422;2022-07-22T15:33:45;39.70;16.90
67194;DHT22;54121;53.508;49.422;2022-07-22T15:36:12;39.00;17.80
67194;DHT22;54121;53.508;49.422;2022-07-22T15:38:39;38.70;18.20
67194;DHT22;54121;53.508;49.422;2022-07-22T15:41:06;38.70;18.40
67194;DHT22;54121;53.508;49.422;2022-07-22T15:43:34;38.40;18.50
67194;DHT22;54121;53.508;49.422;2022-07-22T15:46:02;38.90;18.40
67194;DHT22;54121;53.508;49.422;2022-07-22T15:48:28;39.20;18.40
67194;DHT22;54121;53.508;49.422;2022-07-22T15:50:55;38.90;18.40
67194;DHT22;54121;53.508;49.422;2022-07-22T15:53:24;39.50;18.00
67194;DHT22;54121;53.508;49.422;2022-07-22T15:55:51;39.40;18.30
67194;DHT22;54121;53.508;49.422;2022-07-22T15:58:17;38.20;19.20
67194;DHT22;54121;53.508;49.422;2022-07-22T16:01:02;37.60;20.30
67194;DHT22;54121;53.508;49.422;2022-07-22T16:03:28;37.40;20.80
67194;DHT22;54121;53.508;49.422;2022-07-22T16:05:55;37.10;21.10
67194;DHT22;54121;53.508;49.422;2022-07-22T16:08:22;36.50;21.60
67194;DHT22;54121;53.508;49.422;2022-07-22T16:10:48;36.30;22.50
67194;DHT22;54121;53.508;49.422;2022-07-22T16:13:15;36.30;22.50
67194;DHT22;54121;53.508;49.422;2022-07-22T16:15:41;36.80;21.90
67194;DHT22;54121;53.508;49.422;2022-07-22T16:18:08;36.80;21.70
67194;DHT22;54121;53.508;49.422;2022-07-22T16:20:35;36.50;22.10
67194;DHT22;54121;53.508;49.422;2022-07-22T16:23:01;36.20;22.50
67194;DHT22;54121;53.508;49.422;2022-07-22T16:25:28;36.20;22.50
67194;DHT22;54121;53.508;49.422;2022-07-22T16:27:54;35.80;23.20
67194;DHT22;54121;53.508;49.422;2022-07-22T16:30:21;35.70;23.50